Weather observations for the past three days for
Chenault Airpark
| Date | Time (cdt) | Wind (kph) | Vis. (km) | Weather | Sky Cond. | Temperature (ºC) | Relative Humidity | Wind Chill (°C) | Heat Index (°C) | Pressure | Precipitation (cm) | ||||||
|---|---|---|---|---|---|---|---|---|---|---|---|---|---|---|---|---|---|
| Air | Dwpt | 6 hour | altimeter (cm) | sea level (mb) | 1 hr | 3 hr | 6 hr | ||||||||||
| Max. | Min. | ||||||||||||||||
| 10 | 13:50 | SE 17 | 16.09 | Mostly Cloudy | BKN020 | 29 | 23 | 70% | 33 | 76.05 | 0.0 | ||||||
| 10 | 12:45 | SE 20 | 16.09 | Mostly Cloudy | BKN015 | 27 | 23 | 79% | 30 | 76.1 | 0.0 | ||||||
| 10 | 11:45 | NE 13 | 16.09 | Overcast | OVC009 | 26 | 23 | 84% | 28 | 76.2 | 0.0 | ||||||
| 10 | 10:45 | E 15 | 16.09 | Overcast | OVC005 | 23 | 22 | 94% | 76.23 | 0.0 | |||||||
| 10 | 09:45 | E 15 | 11.27 | Fog/Mist | OVC003 | 22 | 22 | 100% | 76.25 | 0.0 | |||||||
| 10 | 08:50 | NE 11 | 3.22 | Fog/Mist | OVC001 | 21 | 21 | 100% | 76.23 | 0.0 | |||||||
| 10 | 07:45 | NE 13 | 0.40 | Fog | OVC001 | 21 | 21 | 100% | 76.17 | 0.0 | |||||||
| 10 | 06:45 | E 9 | 0.40 | Fog | OVC003 | 20 | 20 | 100% | 76.07 | 0.0 | |||||||
| 10 | 05:35 | NE 6 | 0.80 | Fog | OVC003 | 19.8 | 19.7 | 99% | 76 | 0.0 | |||||||
| 10 | 05:15 | NE 6 | 0.80 | Fog | OVC003 | 19.7 | 19.7 | 100% | 75.97 | 0.0 | |||||||
| 10 | 04:55 | NE 6 | 0.40 | Fog | OVC003 | 19.6 | 19.6 | 100% | 75.95 | 0.0 | |||||||
| 10 | 04:35 | Calm | 0.80 | Fog | BKN003 OVC022 | 18.6 | 18.5 | 99% | 75.92 | 0.0 | |||||||
| 10 | 04:15 | Calm | 0.24 | Fog | BKN005 BKN012 OVC020 | 18.2 | 18.2 | 100% | 75.92 | 0.0 | |||||||
| 10 | 03:55 | Calm | 0.24 | Fog | BKN005 BKN012 OVC020 | 18.2 | 18.1 | 99% | 75.92 | 0.0 | |||||||
| 10 | 03:35 | Calm | 1.21 | Fog/Mist | SCT005 | 19.1 | 19 | 99% | 75.95 | 0.0 | |||||||
| 10 | 03:15 | Calm | 2.01 | Fog/Mist | VV007 | 18.9 | 18.9 | 100% | 75.95 | 0.0 | |||||||
| 10 | 02:55 | Calm | 4.02 | Fog/Mist | CLR | 19.1 | 19 | 99% | 75.95 | 0.0 | |||||||
| 10 | 02:35 | Calm | 6.44 | Fog/Mist | CLR | 19.3 | 19.2 | 99% | 75.92 | 0.0 | |||||||
| 10 | 02:15 | Calm | 1.21 | Fog/Mist | VV005 | 19.4 | 19.3 | 99% | 75.95 | 0.0 | |||||||
| 10 | 01:55 | Calm | 1.61 | Fog/Mist | VV007 | 19.6 | 19.4 | 99% | 75.92 | 0.0 | |||||||
| 10 | 01:35 | Calm | 16.09 | Fair | CLR | 19.9 | 19.6 | 98% | 75.92 | 0.0 | |||||||
| 10 | 01:15 | NE 6 | 16.09 | Fair | CLR | 20 | 19.7 | 98% | 75.92 | 0.0 | |||||||
| 10 | 00:55 | E 6 | 16.09 | Fair | CLR | 19.6 | 19.3 | 22.5 | 19.6 | 98% | 75.92 | 0.0 | 0.03 | ||||
| 10 | 00:35 | E 7 | 16.09 | Fair | CLR | 19.7 | 19.5 | 99% | 75.92 | 0.0 | |||||||
| 10 | 00:15 | E 7 | 16.09 | Fair | CLR | 19.8 | 19.5 | 98% | 75.92 | 0.0 | |||||||
| 09 | 23:55 | SE 7 | 16.09 | Fair | CLR | 20.1 | 19.5 | 96% | 75.92 | 0.0 | |||||||
| 09 | 23:35 | SE 6 | 16.09 | Fair | CLR | 20.3 | 19.6 | 96% | 75.95 | 0.0 | |||||||
| 09 | 23:15 | E 6 | 16.09 | Partly Cloudy | SCT019 | 20.8 | 20.1 | 96% | 75.97 | 0.0 | |||||||
| 09 | 22:55 | E 11 | 16.09 | Mostly Cloudy | BKN018 | 21.3 | 20.4 | 95% | 75.95 | 0.0 | |||||||
| 09 | 22:35 | E 11 | 16.09 | Overcast | BKN015 OVC021 | 21.4 | 20.5 | 95% | 75.97 | 0.0 | |||||||
| 09 | 22:15 | E 26 G 35 | 16.09 | Overcast | SCT007 BKN011 OVC020 | 21.7 | 20.5 | 93% | 75.92 | 0.0 | |||||||
| 09 | 21:45 | SE 30 G 39 | 16.09 | Thunderstorm Light Rain | BKN008 | 21 | 21 | 100% | 75.84 | 0.0 | |||||||
| 09 | 20:45 | S 13 | 16.09 | Thunderstorm Light Rain | BKN008 | 21 | 21 | 100% | 75.95 | 0.0 | |||||||
| 09 | 18:50 | SE 13 | 16.09 | Thunderstorm | BKN008 BKN060 | 23 | 21 | 89% | 75.82 | 0.0 | |||||||
| 09 | 17:55 | E 11 | 16.09 | Thunderstorm | BKN008 OVC060 | 23 | 21 | 89% | 75.82 | 0.0 | |||||||
| 09 | 16:55 | E 28 | 16.09 | Overcast | OVC008 | 22 | 21 | 94% | 75.77 | 0.0 | |||||||
| 09 | 15:50 | E 28 | 16.09 | Overcast | OVC008 | 22 | 21 | 94% | 75.74 | 0.0 | |||||||
| 09 | 14:55 | E 20 | 16.09 | Overcast | OVC025 | 22 | 20 | 88% | 75.84 | 0.0 | |||||||
| 09 | 13:45 | E 17 | 16.09 | Thunderstorm | OVC015 | 23 | 21 | 89% | 75.82 | 0.0 | |||||||
| 09 | 12:45 | E 19 | 16.09 | Overcast | OVC009 | 23 | 21 | 89% | 75.84 | 0.0 | |||||||
| 09 | 11:45 | NE 9 | 11.27 | Overcast | OVC005 | 25 | 23 | 89% | 26 | 75.87 | 0.0 | ||||||
| 09 | 10:50 | NE 6 | 11.27 | Overcast | OVC003 | 23 | 23 | 100% | 75.9 | 0.0 | |||||||
| 09 | 09:45 | NE 6 | 8.05 | Overcast | OVC003 | 23 | 23 | 100% | 75.82 | 0.0 | |||||||
| 09 | 08:50 | NE 9 | 4.83 | Fog/Mist | OVC002 | 22 | 22 | 100% | 75.82 | 0.0 | |||||||
| 09 | 07:45 | NE 9 | 0.80 | Fog | OVC002 | 22 | 22 | 100% | 75.84 | 0.0 | |||||||
| 09 | 06:45 | E 6 | 1.61 | Fog/Mist | OVC004 | 22 | 22 | 100% | 75.82 | 0.0 | |||||||
| 09 | 05:35 | Calm | 8.05 | Fog/Mist | OVC004 | 22.3 | 22.1 | 99% | 75.77 | 0.0 | |||||||
| 09 | 05:15 | Calm | 11.27 | Fog/Mist | OVC006 | 22.2 | 21.9 | 98% | 75.74 | 0.0 | |||||||
| 09 | 04:55 | Calm | 16.09 | Overcast | OVC006 | 21.8 | 21.6 | 99% | 75.72 | 0.0 | |||||||
| 09 | 04:35 | S 9 | 16.09 | Overcast | OVC006 | 21.7 | 21.4 | 98% | 75.72 | 0.0 | |||||||
| 09 | 04:15 | Calm | 16.09 | Overcast | OVC004 | 21.4 | 21.2 | 99% | 75.72 | 0.0 | |||||||
| 09 | 03:55 | Calm | 16.09 | Overcast | OVC006 | 21.4 | 21.1 | 98% | 75.72 | 0.0 | |||||||
| 09 | 03:35 | Calm | 16.09 | Overcast | OVC006 | 21.4 | 21.1 | 98% | 75.77 | 0.0 | |||||||
| 09 | 03:15 | Calm | 16.09 | Overcast | OVC006 | 21 | 20.8 | 99% | 75.74 | 0.0 | |||||||
| 09 | 02:55 | Calm | 16.09 | Mostly Cloudy | BKN006 | 20.7 | 20.5 | 99% | 75.74 | 0.0 | |||||||
| 09 | 02:35 | E 6 | 16.09 | Partly Cloudy | SCT008 | 20.9 | 20.6 | 98% | 75.74 | 0.0 | |||||||
| 09 | 02:15 | Calm | 16.09 | Fair | CLR | 21.3 | 20.9 | 98% | 75.77 | 0.0 | |||||||
| 09 | 01:55 | SE 9 | 16.09 | Fair | CLR | 21.4 | 21 | 98% | 75.77 | 0.0 | |||||||
| 09 | 01:15 | SE 9 | 16.09 | Partly Cloudy | SCT060 SCT090 | 20.7 | 20.5 | 99% | 75.82 | 0.0 | |||||||
| 09 | 00:55 | SE 7 | 16.09 | Partly Cloudy | SCT060 SCT090 | 20.3 | 20.1 | 21.9 | 20.2 | 99% | 75.82 | 0.0 | 0.03 | ||||
| 09 | 00:35 | E 6 | 16.09 | Fair | CLR | 20.8 | 20.6 | 99% | 75.84 | 0.0 | |||||||
| 09 | 00:15 | E 6 | 16.09 | Partly Cloudy | SCT060 | 20.6 | 20.4 | 99% | 75.84 | 0.0 | |||||||
| 08 | 23:55 | SE 7 | 16.09 | Partly Cloudy | SCT060 | 20.7 | 20.4 | 98% | 75.84 | 0.0 | |||||||
| 08 | 23:35 | SE 9 | 16.09 | Partly Cloudy | SCT095 SCT120 | 21 | 20.6 | 98% | 75.87 | 0.0 | |||||||
| 08 | 23:15 | SE 9 | 16.09 | Mostly Cloudy | SCT017 SCT065 BKN080 | 21.1 | 20.8 | 98% | 75.87 | 0.0 | |||||||
| 08 | 22:55 | E 9 | 16.09 | Overcast | SCT015 OVC065 | 21 | 20.7 | 98% | 75.87 | 0.0 | |||||||
| 08 | 22:35 | E 6 | 16.09 | Mostly Cloudy | SCT065 BKN120 | 21 | 20.6 | 98% | 75.9 | 0.0 | |||||||
| 08 | 22:15 | E 7 | 16.09 | Mostly Cloudy | SCT020 BKN120 | 21 | 20.6 | 98% | 75.87 | 0.0 | |||||||
| 08 | 21:45 | E 9 | 16.09 | Overcast | OVC015 | 21 | 21 | 100% | 75.84 | 0.0 | |||||||
| 08 | 20:45 | NE 6 | 16.09 | Overcast | OVC015 | 21 | 21 | 100% | 75.82 | 0.0 | |||||||
| 08 | 19:45 | E 7 | 16.09 | Overcast | BKN008 OVC014 | 22 | 21 | 94% | 75.82 | 0.0 | |||||||
| 08 | 17:50 | E 9 | 16.09 | Overcast | OVC007 | 22 | 22 | 100% | 75.82 | 0.0 | |||||||
| 08 | 16:55 | NE 11 | 16.09 | Overcast | OVC003 | 22 | 21 | 94% | 75.79 | 0.0 | |||||||
| 08 | 15:50 | E 9 | 16.09 | Overcast | BKN003 OVC008 | 22 | 21 | 94% | 75.79 | 0.0 | |||||||
| 08 | 14:45 | SE 7 | 16.09 | Thunderstorm Light Rain | OVC005 | 21 | 21 | 100% | 75.87 | 0.0 | |||||||
| 08 | 13:45 | SE 9 | 16.09 | Overcast | OVC003 | 21 | 21 | 100% | 75.9 | 0.0 | |||||||
| 08 | 12:50 | NE 6 | 16.09 | Thunderstorm Light Rain | OVC003 | 19 | 19 | 100% | 76 | 0.0 | |||||||
| 08 | 11:45 | NE 9 | 11.27 | Rain Fog/Mist | OVC004 | 18 | 18 | 100% | 76.05 | 0.0 | |||||||
| 08 | 10:45 | NE 9 | 11.27 | Thunderstorm Light Rain Fog/Mist | OVC004 | 19 | 18 | 94% | 76 | 0.0 | |||||||
| 08 | 09:45 | NE 13 | 4.83 | Light Rain Fog/Mist | OVC003 | 19 | 18 | 94% | 76.07 | 0.0 | |||||||
| 08 | 08:45 | NE 13 | 4.83 | Fog/Mist | OVC004 | 19 | 18 | 94% | 76.05 | 0.0 | |||||||
| 08 | 07:55 | NE 9 | 8.05 | Fog/Mist | OVC004 | 19 | 18 | 94% | 76 | 0.0 | |||||||
| 08 | 06:45 | E 9 | 8.05 | Fog/Mist | OVC004 | 18 | 17 | 94% | 76 | 0.0 | |||||||
| 08 | 05:35 | NE 9 | 2.01 | Fog/Mist | OVC004 | 17.5 | 17.2 | 98% | 76.05 | 0.0 | |||||||
| 08 | 05:15 | NE 9 | 2.41 | Fog/Mist | OVC004 | 17.4 | 17.1 | 98% | 76.07 | 0.0 | |||||||
| 08 | 04:55 | N 11 | 3.22 | Fog/Mist | OVC004 | 17.4 | 17 | 98% | 76.07 | 0.0 | |||||||
| 08 | 04:35 | N 11 | 5.63 | Fog/Mist | OVC004 | 17.4 | 16.9 | 97% | 76.05 | 0.0 | |||||||
| 08 | 04:15 | NE 7 | 6.44 | Fog/Mist | OVC004 | 17.5 | 17 | 97% | 76.02 | 0.0 | |||||||
| 08 | 03:55 | N 13 | 5.63 | Fog/Mist | BKN006 OVC012 | 17.6 | 17 | 96% | 76 | 0.0 | |||||||
| 08 | 03:35 | NE 11 | 4.83 | Fog/Mist | OVC012 | 17.8 | 17.1 | 96% | 75.97 | 0.0 | |||||||
| 08 | 03:15 | NE 11 | 6.44 | Fog/Mist | OVC010 | 18.1 | 16.9 | 93% | 76.02 | 0.0 | |||||||
| 08 | 02:55 | NE 11 | 11.27 | Fog/Mist | OVC012 | 18.3 | 16.5 | 89% | 76.05 | 0.0 | |||||||
| 08 | 02:35 | NE 13 | 16.09 | Overcast | OVC014 | 19.1 | 15.8 | 81% | 76.02 | 0.0 | |||||||
| 08 | 02:15 | E 9 | 16.09 | Overcast | OVC016 | 19.2 | 16 | 82% | 76.02 | 0.0 | |||||||
| 08 | 01:55 | E 13 | 16.09 | Overcast | OVC016 | 19.1 | 15.7 | 81% | 76.05 | 0.0 | |||||||
| 08 | 01:35 | E 15 | 16.09 | Overcast | OVC018 | 19 | 16 | 83% | 76.02 | 0.0 | |||||||
| 08 | 01:15 | NE 11 | 16.09 | Overcast | BKN018 OVC028 | 19 | 15.8 | 82% | 76.05 | 0.0 | |||||||
| 08 | 00:55 | E 15 | 16.09 | Overcast | OVC030 | 18.9 | 16 | 23.8 | 18.8 | 83% | 76.05 | 0.0 | |||||
| 08 | 00:35 | NE 11 | 16.09 | Partly Cloudy | SCT030 | 19 | 15.8 | 82% | 76.15 | 0.0 | |||||||
| 08 | 00:15 | NE 13 | 16.09 | Fair | CLR | 18.9 | 15.8 | 82% | 76.1 | 0.0 | |||||||
| 07 | 23:55 | NE 13 | 16.09 | Fair | CLR | 19 | 16.1 | 83% | 76.12 | 0.0 | |||||||
| 07 | 23:35 | NE 11 | 16.09 | Fair | CLR | 19.1 | 16.2 | 83% | 76.15 | 0.0 | |||||||
| 07 | 23:15 | NE 11 | 16.09 | Fair | CLR | 19.1 | 16.5 | 85% | 76.17 | 0.0 | |||||||
| 07 | 22:55 | E 9 | 16.09 | Fair | CLR | 19.1 | 16.6 | 86% | 76.15 | 0.0 | |||||||
| 07 | 22:35 | E 9 | 16.09 | Fair | CLR | 19.7 | 16.6 | 82% | 76.17 | 0.0 | |||||||
| 07 | 22:15 | NE 11 | 16.09 | Fair | CLR | 19.8 | 17.1 | 85% | 76.15 | 0.0 | |||||||
| 07 | 21:50 | NE 11 | 16.09 | Fair | CLR | 20 | 17 | 83% | 76.12 | 0.0 | |||||||
| 07 | 20:45 | NE 11 | 16.09 | Fair | CLR | 21 | 17 | 78% | 76.07 | 0.0 | |||||||
| 07 | 19:50 | NE 15 | 16.09 | Partly Cloudy | SCT030 | 23 | 18 | 74% | 76.05 | 0.0 | |||||||
| 07 | 18:50 | NE 13 | 16.09 | Partly Cloudy | SCT027 | 24 | 18 | 69% | 25 | 76.02 | 0.0 | ||||||
| 07 | 17:50 | NE 11 | 16.09 | Fair | CLR | 24 | 18 | 69% | 25 | 76.02 | 0.0 | ||||||
| 07 | 16:50 | N 13 | 16.09 | Fair | CLR | 25 | 18 | 65% | 26 | 76.05 | 0.0 | ||||||
| 07 | 15:45 | N 20 | 16.09 | Mostly Cloudy | BKN050 | 24 | 18 | 69% | 25 | 76.07 | 0.0 | ||||||
| 07 | 14:50 | N 9 | 16.09 | Fair | CLR | 23 | 18 | 74% | 76.12 | 0.0 | |||||||
| Date | Time (cdt) | Wind (kph) | Vis. (km) | Weather | Sky Cond. | Air | Dwpt | Max. | Min. | Relative Humidity | Wind Chill (°C) | Heat Index (°C) | altimeter (cm) | sea level (mb) | 1 hr | 3 hr | 6 hr |
| 6 hour | |||||||||||||||||
| Temperature (ºC) | Pressure | Precipitation (cm) | |||||||||||||||